sensor_id;sensor_type;location;lat;lon;timestamp;P1;durP1;ratioP1;P2;durP2;ratioP2
54454;SDS011;40364;52.270;10.546;2022-10-20T00:00:22;6.35;;;2.22;;
54454;SDS011;40364;52.270;10.546;2022-10-20T00:02:48;4.40;;;2.58;;
54454;SDS011;40364;52.270;10.546;2022-10-20T00:05:15;5.70;;;2.17;;
54454;SDS011;40364;52.270;10.546;2022-10-20T00:07:43;5.85;;;2.45;;
54454;SDS011;40364;52.270;10.546;2022-10-20T00:10:10;3.55;;;1.90;;
54454;SDS011;40364;52.270;10.546;2022-10-20T00:12:36;5.10;;;2.13;;
54454;SDS011;40364;52.270;10.546;2022-10-20T00:15:03;9.48;;;2.22;;
54454;SDS011;40364;52.270;10.546;2022-10-20T00:17:31;3.25;;;1.95;;
54454;SDS011;40364;52.270;10.546;2022-10-20T00:19:57;2.72;;;2.05;;
54454;SDS011;40364;52.270;10.546;2022-10-20T00:22:24;4.13;;;2.25;;
54454;SDS011;40364;52.270;10.546;2022-10-20T00:24:52;2.97;;;2.00;;
54454;SDS011;40364;52.270;10.546;2022-10-20T00:27:19;3.95;;;1.88;;
54454;SDS011;40364;52.270;10.546;2022-10-20T00:29:46;3.97;;;2.13;;
54454;SDS011;40364;52.270;10.546;2022-10-20T00:32:13;8.75;;;1.90;;
54454;SDS011;40364;52.270;10.546;2022-10-20T00:34:40;3.78;;;1.90;;
54454;SDS011;40364;52.270;10.546;2022-10-20T00:37:07;4.07;;;2.20;;
54454;SDS011;40364;52.270;10.546;2022-10-20T00:39:33;4.13;;;2.22;;
54454;SDS011;40364;52.270;10.546;2022-10-20T00:42:02;2.58;;;1.75;;
54454;SDS011;40364;52.270;10.546;2022-10-20T00:44:49;4.47;;;1.95;;
54454;SDS011;40364;52.270;10.546;2022-10-20T00:47:19;3.90;;;2.05;;
54454;SDS011;40364;52.270;10.546;2022-10-20T00:49:56;4.15;;;2.00;;
54454;SDS011;40364;52.270;10.546;2022-10-20T00:52:30;5.32;;;2.08;;
54454;SDS011;40364;52.270;10.546;2022-10-20T00:54:57;2.75;;;2.17;;
54454;SDS011;40364;52.270;10.546;2022-10-20T00:57:26;3.45;;;2.03;;
54454;SDS011;40364;52.270;10.546;2022-10-20T00:59:54;3.47;;;2.00;;
54454;SDS011;40364;52.270;10.546;2022-10-20T01:02:21;2.80;;;1.92;;
54454;SDS011;40364;52.270;10.546;2022-10-20T01:04:48;3.83;;;1.92;;
54454;SDS011;40364;52.270;10.546;2022-10-20T01:07:16;4.40;;;1.88;;
54454;SDS011;40364;52.270;10.546;2022-10-20T01:09:43;2.47;;;1.60;;
54454;SDS011;40364;52.270;10.546;2022-10-20T01:12:14;7.18;;;1.85;;
54454;SDS011;40364;52.270;10.546;2022-10-20T01:14:53;3.67;;;1.70;;
54454;SDS011;40364;52.270;10.546;2022-10-20T01:17:30;2.55;;;1.75;;
54454;SDS011;40364;52.270;10.546;2022-10-20T01:20:15;6.40;;;2.50;;
54454;SDS011;40364;52.270;10.546;2022-10-20T01:22:57;7.50;;;1.98;;
54454;SDS011;40364;52.270;10.546;2022-10-20T01:25:40;4.47;;;1.90;;
54454;SDS011;40364;52.270;10.546;2022-10-20T01:28:20;2.85;;;1.75;;
54454;SDS011;40364;52.270;10.546;2022-10-20T01:30:54;6.78;;;1.80;;
54454;SDS011;40364;52.270;10.546;2022-10-20T01:33:28;3.45;;;1.42;;
54454;SDS011;40364;52.270;10.546;2022-10-20T01:36:00;6.25;;;2.00;;
54454;SDS011;40364;52.270;10.546;2022-10-20T01:38:34;3.30;;;1.27;;
54454;SDS011;40364;52.270;10.546;2022-10-20T01:41:07;4.07;;;1.77;;
54454;SDS011;40364;52.270;10.546;2022-10-20T01:43:40;2.63;;;1.83;;
54454;SDS011;40364;52.270;10.546;2022-10-20T01:46:10;3.47;;;2.00;;
54454;SDS011;40364;52.270;10.546;2022-10-20T01:48:40;4.35;;;1.88;;
54454;SDS011;40364;52.270;10.546;2022-10-20T01:51:07;3.72;;;1.85;;
54454;SDS011;40364;52.270;10.546;2022-10-20T01:53:35;2.42;;;1.95;;
54454;SDS011;40364;52.270;10.546;2022-10-20T01:56:02;10.82;;;2.33;;
54454;SDS011;40364;52.270;10.546;2022-10-20T02:01:35;3.47;;;2.17;;
54454;SDS011;40364;52.270;10.546;2022-10-20T02:04:18;3.55;;;2.10;;
54454;SDS011;40364;52.270;10.546;2022-10-20T02:09:25;4.82;;;2.28;;
54454;SDS011;40364;52.270;10.546;2022-10-20T02:14:30;3.60;;;2.42;;
54454;SDS011;40364;52.270;10.546;2022-10-20T02:16:58;7.72;;;2.63;;
54454;SDS011;40364;52.270;10.546;2022-10-20T02:19:30;4.25;;;2.70;;
54454;SDS011;40364;52.270;10.546;2022-10-20T02:21:59;3.95;;;2.42;;
54454;SDS011;40364;52.270;10.546;2022-10-20T02:24:28;5.40;;;2.83;;
54454;SDS011;40364;52.270;10.546;2022-10-20T02:27:00;2.88;;;2.22;;
54454;SDS011;40364;52.270;10.546;2022-10-20T02:29:34;5.60;;;2.90;;
54454;SDS011;40364;52.270;10.546;2022-10-20T02:32:04;5.80;;;2.33;;
54454;SDS011;40364;52.270;10.546;2022-10-20T02:34:31;14.75;;;2.90;;
54454;SDS011;40364;52.270;10.546;2022-10-20T02:36:58;8.20;;;2.88;;
54454;SDS011;40364;52.270;10.546;2022-10-20T02:39:25;4.18;;;2.58;;
54454;SDS011;40364;52.270;10.546;2022-10-20T02:41:52;8.48;;;4.18;;
54454;SDS011;40364;52.270;10.546;2022-10-20T02:44:19;6.22;;;3.03;;
54454;SDS011;40364;52.270;10.546;2022-10-20T02:46:48;3.85;;;2.67;;
54454;SDS011;40364;52.270;10.546;2022-10-20T02:49:15;6.22;;;3.10;;
54454;SDS011;40364;52.270;10.546;2022-10-20T02:51:41;5.03;;;3.03;;
54454;SDS011;40364;52.270;10.546;2022-10-20T02:54:08;3.78;;;2.90;;
54454;SDS011;40364;52.270;10.546;2022-10-20T02:56:35;5.18;;;3.17;;
54454;SDS011;40364;52.270;10.546;2022-10-20T02:59:02;5.13;;;2.95;;
54454;SDS011;40364;52.270;10.546;2022-10-20T03:01:28;5.30;;;2.90;;
54454;SDS011;40364;52.270;10.546;2022-10-20T03:03:56;9.05;;;2.92;;
54454;SDS011;40364;52.270;10.546;2022-10-20T03:06:24;7.20;;;3.25;;
54454;SDS011;40364;52.270;10.546;2022-10-20T03:08:51;5.68;;;3.67;;
54454;SDS011;40364;52.270;10.546;2022-10-20T03:11:18;5.07;;;3.20;;
54454;SDS011;40364;52.270;10.546;2022-10-20T03:13:45;7.20;;;2.63;;
54454;SDS011;40364;52.270;10.546;2022-10-20T03:16:11;5.70;;;3.60;;
54454;SDS011;40364;52.270;10.546;2022-10-20T03:18:38;4.35;;;2.67;;
54454;SDS011;40364;52.270;10.546;2022-10-20T03:21:06;6.05;;;3.03;;
54454;SDS011;40364;52.270;10.546;2022-10-20T03:23:33;4.70;;;2.83;;
54454;SDS011;40364;52.270;10.546;2022-10-20T03:26:00;5.72;;;3.10;;
54454;SDS011;40364;52.270;10.546;2022-10-20T03:28:27;9.35;;;2.50;;
54454;SDS011;40364;52.270;10.546;2022-10-20T03:30:54;6.63;;;3.28;;
54454;SDS011;40364;52.270;10.546;2022-10-20T03:33:21;4.63;;;2.63;;
54454;SDS011;40364;52.270;10.546;2022-10-20T03:35:48;4.90;;;2.60;;
54454;SDS011;40364;52.270;10.546;2022-10-20T03:38:16;4.75;;;2.42;;
54454;SDS011;40364;52.270;10.546;2022-10-20T03:40:42;6.55;;;2.78;;
54454;SDS011;40364;52.270;10.546;2022-10-20T03:43:09;3.35;;;2.13;;
54454;SDS011;40364;52.270;10.546;2022-10-20T03:45:36;2.88;;;2.05;;
54454;SDS011;40364;52.270;10.546;2022-10-20T03:48:03;3.42;;;1.98;;
54454;SDS011;40364;52.270;10.546;2022-10-20T03:50:30;5.20;;;2.40;;
54454;SDS011;40364;52.270;10.546;2022-10-20T03:52:57;5.95;;;2.60;;
54454;SDS011;40364;52.270;10.546;2022-10-20T03:55:25;6.25;;;2.63;;
54454;SDS011;40364;52.270;10.546;2022-10-20T03:57:51;6.03;;;2.75;;
54454;SDS011;40364;52.270;10.546;2022-10-20T04:00:18;4.95;;;2.17;;
54454;SDS011;40364;52.270;10.546;2022-10-20T04:02:45;3.75;;;2.58;;
54454;SDS011;40364;52.270;10.546;2022-10-20T04:05:13;2.85;;;2.35;;
54454;SDS011;40364;52.270;10.546;2022-10-20T04:07:42;4.18;;;2.67;;
54454;SDS011;40364;52.270;10.546;2022-10-20T04:10:09;3.85;;;2.47;;
54454;SDS011;40364;52.270;10.546;2022-10-20T04:12:37;3.33;;;2.13;;
54454;SDS011;40364;52.270;10.546;2022-10-20T04:15:04;5.05;;;2.67;;
54454;SDS011;40364;52.270;10.546;2022-10-20T04:17:32;4.28;;;2.42;;
54454;SDS011;40364;52.270;10.546;2022-10-20T04:20:00;4.10;;;2.10;;
54454;SDS011;40364;52.270;10.546;2022-10-20T04:22:27;6.78;;;2.75;;
54454;SDS011;40364;52.270;10.546;2022-10-20T04:24:54;4.65;;;2.45;;
54454;SDS011;40364;52.270;10.546;2022-10-20T04:27:21;4.93;;;2.65;;
54454;SDS011;40364;52.270;10.546;2022-10-20T04:29:49;4.28;;;2.67;;
54454;SDS011;40364;52.270;10.546;2022-10-20T04:32:15;4.80;;;2.53;;
54454;SDS011;40364;52.270;10.546;2022-10-20T04:34:42;4.55;;;2.28;;
54454;SDS011;40364;52.270;10.546;2022-10-20T04:37:08;2.78;;;1.95;;
54454;SDS011;40364;52.270;10.546;2022-10-20T04:39:35;4.22;;;1.90;;
54454;SDS011;40364;52.270;10.546;2022-10-20T04:42:02;5.45;;;2.13;;
54454;SDS011;40364;52.270;10.546;2022-10-20T04:44:29;5.28;;;2.35;;
54454;SDS011;40364;52.270;10.546;2022-10-20T04:46:57;5.10;;;2.00;;
54454;SDS011;40364;52.270;10.546;2022-10-20T04:49:23;4.70;;;2.20;;
54454;SDS011;40364;52.270;10.546;2022-10-20T04:51:50;5.10;;;1.90;;
54454;SDS011;40364;52.270;10.546;2022-10-20T04:54:16;2.85;;;1.95;;
54454;SDS011;40364;52.270;10.546;2022-10-20T04:56:43;1.88;;;1.63;;
54454;SDS011;40364;52.270;10.546;2022-10-20T04:59:10;2.53;;;2.00;;
54454;SDS011;40364;52.270;10.546;2022-10-20T05:01:37;3.03;;;1.98;;
54454;SDS011;40364;52.270;10.546;2022-10-20T05:04:05;3.40;;;2.03;;
54454;SDS011;40364;52.270;10.546;2022-10-20T05:06:32;2.63;;;1.80;;
54454;SDS011;40364;52.270;10.546;2022-10-20T05:09:00;3.20;;;1.90;;
54454;SDS011;40364;52.270;10.546;2022-10-20T05:11:29;5.15;;;2.70;;
54454;SDS011;40364;52.270;10.546;2022-10-20T05:13:56;6.22;;;2.78;;
54454;SDS011;40364;52.270;10.546;2022-10-20T05:16:23;3.67;;;2.25;;
54454;SDS011;40364;52.270;10.546;2022-10-20T05:18:50;5.00;;;2.25;;
54454;SDS011;40364;52.270;10.546;2022-10-20T05:21:19;4.57;;;2.00;;
54454;SDS011;40364;52.270;10.546;2022-10-20T05:23:47;9.13;;;2.50;;
54454;SDS011;40364;52.270;10.546;2022-10-20T05:26:15;7.53;;;2.45;;
54454;SDS011;40364;52.270;10.546;2022-10-20T05:28:44;4.55;;;2.17;;
54454;SDS011;40364;52.270;10.546;2022-10-20T05:31:12;4.63;;;2.70;;
54454;SDS011;40364;52.270;10.546;2022-10-20T05:33:42;4.07;;;2.70;;
54454;SDS011;40364;52.270;10.546;2022-10-20T05:36:10;3.60;;;2.15;;
54454;SDS011;40364;52.270;10.546;2022-10-20T05:38:41;5.80;;;2.92;;
54454;SDS011;40364;52.270;10.546;2022-10-20T05:41:08;4.05;;;2.22;;
54454;SDS011;40364;52.270;10.546;2022-10-20T05:43:36;5.38;;;3.03;;
54454;SDS011;40364;52.270;10.546;2022-10-20T05:46:04;9.65;;;2.83;;
54454;SDS011;40364;52.270;10.546;2022-10-20T05:48:31;4.07;;;2.88;;
54454;SDS011;40364;52.270;10.546;2022-10-20T05:51:05;4.53;;;3.50;;
54454;SDS011;40364;52.270;10.546;2022-10-20T05:53:33;7.47;;;3.50;;
54454;SDS011;40364;52.270;10.546;2022-10-20T05:56:08;5.07;;;3.50;;
54454;SDS011;40364;52.270;10.546;2022-10-20T05:58:36;5.13;;;3.17;;
54454;SDS011;40364;52.270;10.546;2022-10-20T06:01:13;5.60;;;3.20;;
54454;SDS011;40364;52.270;10.546;2022-10-20T06:03:45;6.07;;;3.60;;
54454;SDS011;40364;52.270;10.546;2022-10-20T06:06:12;7.00;;;3.83;;
54454;SDS011;40364;52.270;10.546;2022-10-20T06:08:39;8.00;;;3.25;;
54454;SDS011;40364;52.270;10.546;2022-10-20T06:11:08;4.38;;;3.17;;
54454;SDS011;40364;52.270;10.546;2022-10-20T06:13:36;6.78;;;4.47;;
54454;SDS011;40364;52.270;10.546;2022-10-20T06:16:03;5.75;;;3.30;;
54454;SDS011;40364;52.270;10.546;2022-10-20T06:18:30;7.40;;;3.80;;
54454;SDS011;40364;52.270;10.546;2022-10-20T06:20:59;7.13;;;3.97;;
54454;SDS011;40364;52.270;10.546;2022-10-20T06:23:27;5.45;;;3.53;;
54454;SDS011;40364;52.270;10.546;2022-10-20T06:25:53;5.50;;;3.95;;
54454;SDS011;40364;52.270;10.546;2022-10-20T06:28:22;5.30;;;3.50;;
54454;SDS011;40364;52.270;10.546;2022-10-20T06:30:48;6.55;;;4.13;;
54454;SDS011;40364;52.270;10.546;2022-10-20T06:33:15;5.53;;;3.55;;
54454;SDS011;40364;52.270;10.546;2022-10-20T06:35:41;6.05;;;4.13;;
54454;SDS011;40364;52.270;10.546;2022-10-20T06:38:08;12.20;;;3.65;;
54454;SDS011;40364;52.270;10.546;2022-10-20T06:40:35;5.93;;;3.55;;
54454;SDS011;40364;52.270;10.546;2022-10-20T06:43:01;8.30;;;3.67;;
54454;SDS011;40364;52.270;10.546;2022-10-20T06:45:29;9.98;;;3.08;;
54454;SDS011;40364;52.270;10.546;2022-10-20T06:47:56;5.78;;;3.67;;
54454;SDS011;40364;52.270;10.546;2022-10-20T06:50:23;6.43;;;3.60;;
54454;SDS011;40364;52.270;10.546;2022-10-20T06:52:49;8.52;;;3.50;;
54454;SDS011;40364;52.270;10.546;2022-10-20T06:55:16;8.48;;;3.55;;
54454;SDS011;40364;52.270;10.546;2022-10-20T06:57:42;7.97;;;3.65;;
54454;SDS011;40364;52.270;10.546;2022-10-20T07:00:09;10.52;;;3.53;;
54454;SDS011;40364;52.270;10.546;2022-10-20T07:02:38;8.65;;;4.60;;
54454;SDS011;40364;52.270;10.546;2022-10-20T07:05:05;4.63;;;3.88;;
54454;SDS011;40364;52.270;10.546;2022-10-20T07:07:32;7.88;;;4.28;;
54454;SDS011;40364;52.270;10.546;2022-10-20T07:09:59;7.10;;;4.72;;
54454;SDS011;40364;52.270;10.546;2022-10-20T07:12:25;7.75;;;4.45;;
54454;SDS011;40364;52.270;10.546;2022-10-20T07:14:52;8.63;;;4.90;;
54454;SDS011;40364;52.270;10.546;2022-10-20T07:17:18;9.10;;;4.63;;
54454;SDS011;40364;52.270;10.546;2022-10-20T07:19:46;7.85;;;4.80;;
54454;SDS011;40364;52.270;10.546;2022-10-20T07:22:13;6.47;;;4.63;;
54454;SDS011;40364;52.270;10.546;2022-10-20T07:24:40;7.63;;;4.40;;
54454;SDS011;40364;52.270;10.546;2022-10-20T07:27:07;9.13;;;5.20;;
54454;SDS011;40364;52.270;10.546;2022-10-20T07:29:33;6.30;;;4.38;;
54454;SDS011;40364;52.270;10.546;2022-10-20T07:32:00;9.73;;;4.82;;
54454;SDS011;40364;52.270;10.546;2022-10-20T07:34:26;6.38;;;4.65;;
54454;SDS011;40364;52.270;10.546;2022-10-20T07:36:55;7.47;;;4.68;;
54454;SDS011;40364;52.270;10.546;2022-10-20T07:39:22;6.38;;;4.97;;
54454;SDS011;40364;52.270;10.546;2022-10-20T07:41:49;7.30;;;4.60;;
54454;SDS011;40364;52.270;10.546;2022-10-20T07:44:16;10.40;;;5.07;;
54454;SDS011;40364;52.270;10.546;2022-10-20T07:46:43;7.95;;;5.10;;
54454;SDS011;40364;52.270;10.546;2022-10-20T07:49:09;8.18;;;5.10;;
54454;SDS011;40364;52.270;10.546;2022-10-20T07:51:36;8.82;;;4.78;;
54454;SDS011;40364;52.270;10.546;2022-10-20T07:54:04;10.02;;;4.70;;
54454;SDS011;40364;52.270;10.546;2022-10-20T07:56:34;5.82;;;4.22;;
54454;SDS011;40364;52.270;10.546;2022-10-20T07:59:02;8.85;;;4.45;;
54454;SDS011;40364;52.270;10.546;2022-10-20T08:01:29;7.15;;;4.22;;
54454;SDS011;40364;52.270;10.546;2022-10-20T08:03:56;6.88;;;4.30;;
54454;SDS011;40364;52.270;10.546;2022-10-20T08:06:23;9.32;;;4.70;;
54454;SDS011;40364;52.270;10.546;2022-10-20T08:08:50;7.47;;;3.83;;
54454;SDS011;40364;52.270;10.546;2022-10-20T08:11:19;11.10;;;4.85;;
54454;SDS011;40364;52.270;10.546;2022-10-20T08:13:45;6.43;;;4.32;;
54454;SDS011;40364;52.270;10.546;2022-10-20T08:16:12;6.43;;;4.43;;
54454;SDS011;40364;52.270;10.546;2022-10-20T08:18:41;7.93;;;4.32;;
54454;SDS011;40364;52.270;10.546;2022-10-20T08:21:08;9.00;;;3.97;;
54454;SDS011;40364;52.270;10.546;2022-10-20T08:23:38;5.65;;;3.95;;
54454;SDS011;40364;52.270;10.546;2022-10-20T08:26:05;5.00;;;3.72;;
54454;SDS011;40364;52.270;10.546;2022-10-20T08:28:33;6.32;;;3.67;;
54454;SDS011;40364;52.270;10.546;2022-10-20T08:31:00;5.28;;;3.38;;
54454;SDS011;40364;52.270;10.546;2022-10-20T08:33:27;5.90;;;3.90;;
54454;SDS011;40364;52.270;10.546;2022-10-20T08:35:54;8.75;;;4.25;;
54454;SDS011;40364;52.270;10.546;2022-10-20T08:38:21;6.90;;;3.67;;
54454;SDS011;40364;52.270;10.546;2022-10-20T08:40:47;7.75;;;4.22;;
54454;SDS011;40364;52.270;10.546;2022-10-20T08:43:15;5.57;;;3.33;;
54454;SDS011;40364;52.270;10.546;2022-10-20T08:45:45;5.45;;;3.78;;
54454;SDS011;40364;52.270;10.546;2022-10-20T08:48:16;6.60;;;3.67;;
54454;SDS011;40364;52.270;10.546;2022-10-20T08:50:46;4.32;;;3.35;;
54454;SDS011;40364;52.270;10.546;2022-10-20T08:53:15;6.60;;;3.17;;
54454;SDS011;40364;52.270;10.546;2022-10-20T08:55:44;4.72;;;3.25;;
54454;SDS011;40364;52.270;10.546;2022-10-20T08:58:11;6.82;;;4.15;;
54454;SDS011;40364;52.270;10.546;2022-10-20T09:00:41;8.55;;;4.22;;
54454;SDS011;40364;52.270;10.546;2022-10-20T09:03:12;7.47;;;4.35;;
54454;SDS011;40364;52.270;10.546;2022-10-20T09:05:42;5.00;;;3.55;;
54454;SDS011;40364;52.270;10.546;2022-10-20T09:08:11;10.13;;;4.35;;
54454;SDS011;40364;52.270;10.546;2022-10-20T09:10:38;5.43;;;4.10;;
54454;SDS011;40364;52.270;10.546;2022-10-20T09:13:09;5.70;;;4.80;;
54454;SDS011;40364;52.270;10.546;2022-10-20T09:15:42;10.75;;;4.40;;
54454;SDS011;40364;52.270;10.546;2022-10-20T09:18:09;5.80;;;4.55;;
54454;SDS011;40364;52.270;10.546;2022-10-20T09:20:40;6.97;;;4.18;;
54454;SDS011;40364;52.270;10.546;2022-10-20T09:23:12;10.57;;;4.07;;
54454;SDS011;40364;52.270;10.546;2022-10-20T09:25:41;9.13;;;4.65;;
54454;SDS011;40364;52.270;10.546;2022-10-20T09:28:15;11.98;;;4.38;;
54454;SDS011;40364;52.270;10.546;2022-10-20T09:30:46;7.93;;;4.45;;
54454;SDS011;40364;52.270;10.546;2022-10-20T09:33:21;9.23;;;4.28;;
54454;SDS011;40364;52.270;10.546;2022-10-20T09:35:53;8.48;;;4.97;;
54454;SDS011;40364;52.270;10.546;2022-10-20T09:38:26;10.43;;;5.25;;
54454;SDS011;40364;52.270;10.546;2022-10-20T09:40:56;10.07;;;5.25;;
54454;SDS011;40364;52.270;10.546;2022-10-20T09:43:32;12.77;;;4.80;;
54454;SDS011;40364;52.270;10.546;2022-10-20T09:45:59;6.75;;;4.85;;
54454;SDS011;40364;52.270;10.546;2022-10-20T09:48:32;8.25;;;5.20;;
54454;SDS011;40364;52.270;10.546;2022-10-20T09:53:44;8.15;;;4.45;;
54454;SDS011;40364;52.270;10.546;2022-10-20T09:56:24;7.75;;;4.75;;
54454;SDS011;40364;52.270;10.546;2022-10-20T09:58:52;7.68;;;4.20;;
54454;SDS011;40364;52.270;10.546;2022-10-20T10:01:20;6.03;;;4.25;;
54454;SDS011;40364;52.270;10.546;2022-10-20T10:03:49;10.10;;;4.95;;
54454;SDS011;40364;52.270;10.546;2022-10-20T10:06:24;7.28;;;4.82;;
54454;SDS011;40364;52.270;10.546;2022-10-20T10:08:53;8.18;;;4.20;;
54454;SDS011;40364;52.270;10.546;2022-10-20T10:11:22;8.43;;;4.47;;
54454;SDS011;40364;52.270;10.546;2022-10-20T10:13:51;6.63;;;4.38;;
54454;SDS011;40364;52.270;10.546;2022-10-20T10:16:19;6.68;;;4.60;;
54454;SDS011;40364;52.270;10.546;2022-10-20T10:18:54;5.65;;;4.38;;
54454;SDS011;40364;52.270;10.546;2022-10-20T10:21:26;7.38;;;4.22;;
54454;SDS011;40364;52.270;10.546;2022-10-20T10:23:55;6.80;;;4.70;;
54454;SDS011;40364;52.270;10.546;2022-10-20T10:29:19;6.57;;;4.78;;
54454;SDS011;40364;52.270;10.546;2022-10-20T10:31:51;6.25;;;4.40;;
54454;SDS011;40364;52.270;10.546;2022-10-20T10:34:31;8.35;;;4.38;;
54454;SDS011;40364;52.270;10.546;2022-10-20T10:37:06;8.95;;;4.63;;
54454;SDS011;40364;52.270;10.546;2022-10-20T10:39:37;5.82;;;4.63;;
54454;SDS011;40364;52.270;10.546;2022-10-20T10:45:02;6.32;;;4.53;;
54454;SDS011;40364;52.270;10.546;2022-10-20T10:47:46;6.50;;;4.78;;
54454;SDS011;40364;52.270;10.546;2022-10-20T10:50:39;6.90;;;4.50;;
54454;SDS011;40364;52.270;10.546;2022-10-20T10:55:50;9.38;;;3.92;;
54454;SDS011;40364;52.270;10.546;2022-10-20T10:58:29;6.85;;;4.18;;
54454;SDS011;40364;52.270;10.546;2022-10-20T11:01:23;5.67;;;4.43;;
54454;SDS011;40364;52.270;10.546;2022-10-20T11:06:56;5.68;;;3.47;;
54454;SDS011;40364;52.270;10.546;2022-10-20T11:09:30;7.40;;;3.35;;
54454;SDS011;40364;52.270;10.546;2022-10-20T11:14:57;4.40;;;3.50;;
54454;SDS011;40364;52.270;10.546;2022-10-20T11:17:36;4.45;;;3.15;;
54454;SDS011;40364;52.270;10.546;2022-10-20T11:20:15;4.45;;;2.85;;
54454;SDS011;40364;52.270;10.546;2022-10-20T11:22:54;5.30;;;2.85;;
54454;SDS011;40364;52.270;10.546;2022-10-20T11:25:44;5.13;;;2.72;;
54454;SDS011;40364;52.270;10.546;2022-10-20T11:28:20;5.47;;;2.63;;
54454;SDS011;40364;52.270;10.546;2022-10-20T11:30:54;3.80;;;2.15;;
54454;SDS011;40364;52.270;10.546;2022-10-20T11:33:22;4.82;;;2.63;;
54454;SDS011;40364;52.270;10.546;2022-10-20T11:35:55;4.32;;;2.10;;
54454;SDS011;40364;52.270;10.546;2022-10-20T11:38:28;2.42;;;1.85;;
54454;SDS011;40364;52.270;10.546;2022-10-20T11:41:00;4.28;;;2.58;;
54454;SDS011;40364;52.270;10.546;2022-10-20T11:43:31;2.60;;;2.03;;
54454;SDS011;40364;52.270;10.546;2022-10-20T11:46:04;2.65;;;1.90;;
54454;SDS011;40364;52.270;10.546;2022-10-20T11:48:37;3.45;;;2.10;;
54454;SDS011;40364;52.270;10.546;2022-10-20T11:54:12;3.20;;;1.60;;
54454;SDS011;40364;52.270;10.546;2022-10-20T11:57:02;4.82;;;1.77;;
54454;SDS011;40364;52.270;10.546;2022-10-20T11:59:53;2.22;;;1.50;;
54454;SDS011;40364;52.270;10.546;2022-10-20T12:02:39;5.95;;;1.58;;
54454;SDS011;40364;52.270;10.546;2022-10-20T12:05:26;6.15;;;1.67;;
54454;SDS011;40364;52.270;10.546;2022-10-20T12:08:21;3.33;;;1.73;;
54454;SDS011;40364;52.270;10.546;2022-10-20T12:11:04;1.52;;;1.30;;
54454;SDS011;40364;52.270;10.546;2022-10-20T12:13:40;1.27;;;1.17;;
54454;SDS011;40364;52.270;10.546;2022-10-20T12:19:15;5.03;;;1.50;;
54454;SDS011;40364;52.270;10.546;2022-10-20T12:21:52;6.57;;;1.58;;
54454;SDS011;40364;52.270;10.546;2022-10-20T12:24:34;4.82;;;1.27;;
54454;SDS011;40364;52.270;10.546;2022-10-20T12:29:56;3.63;;;1.20;;
54454;SDS011;40364;52.270;10.546;2022-10-20T12:32:33;1.75;;;1.27;;
54454;SDS011;40364;52.270;10.546;2022-10-20T12:35:42;2.35;;;1.48;;
54454;SDS011;40364;52.270;10.546;2022-10-20T12:38:26;3.45;;;1.30;;
54454;SDS011;40364;52.270;10.546;2022-10-20T12:40:55;1.95;;;1.15;;
54454;SDS011;40364;52.270;10.546;2022-10-20T12:43:31;6.72;;;1.65;;
54454;SDS011;40364;52.270;10.546;2022-10-20T12:48:45;2.08;;;1.50;;
54454;SDS011;40364;52.270;10.546;2022-10-20T12:51:22;2.30;;;1.73;;
54454;SDS011;40364;52.270;10.546;2022-10-20T12:53:56;5.32;;;2.13;;
54454;SDS011;40364;52.270;10.546;2022-10-20T12:56:27;2.53;;;1.75;;
54454;SDS011;40364;52.270;10.546;2022-10-20T12:59:08;3.72;;;2.10;;
54454;SDS011;40364;52.270;10.546;2022-10-20T13:08:15;3.00;;;2.10;;
54454;SDS011;40364;52.270;10.546;2022-10-20T13:10:47;5.03;;;2.50;;
54454;SDS011;40364;52.270;10.546;2022-10-20T13:16:14;3.60;;;2.20;;
54454;SDS011;40364;52.270;10.546;2022-10-20T13:18:47;3.83;;;2.55;;
54454;SDS011;40364;52.270;10.546;2022-10-20T13:21:18;5.57;;;2.50;;
54454;SDS011;40364;52.270;10.546;2022-10-20T13:23:57;4.72;;;2.65;;
54454;SDS011;40364;52.270;10.546;2022-10-20T13:26:28;4.47;;;2.50;;
54454;SDS011;40364;52.270;10.546;2022-10-20T13:28:57;4.63;;;2.47;;
54454;SDS011;40364;52.270;10.546;2022-10-20T13:31:29;3.22;;;2.28;;
54454;SDS011;40364;52.270;10.546;2022-10-20T13:34:02;6.53;;;2.33;;
54454;SDS011;40364;52.270;10.546;2022-10-20T13:36:36;7.05;;;2.80;;
54454;SDS011;40364;52.270;10.546;2022-10-20T13:39:14;5.85;;;3.28;;
54454;SDS011;40364;52.270;10.546;2022-10-20T13:41:46;4.90;;;3.22;;
54454;SDS011;40364;52.270;10.546;2022-10-20T13:44:21;4.20;;;3.30;;
54454;SDS011;40364;52.270;10.546;2022-10-20T13:46:58;4.25;;;3.20;;
54454;SDS011;40364;52.270;10.546;2022-10-20T13:49:41;3.85;;;3.20;;
54454;SDS011;40364;52.270;10.546;2022-10-20T13:52:18;7.63;;;3.90;;
54454;SDS011;40364;52.270;10.546;2022-10-20T13:54:46;5.72;;;3.85;;
54454;SDS011;40364;52.270;10.546;2022-10-20T13:57:19;5.72;;;3.58;;
54454;SDS011;40364;52.270;10.546;2022-10-20T13:59:55;8.68;;;3.60;;
54454;SDS011;40364;52.270;10.546;2022-10-20T14:02:26;6.93;;;4.60;;
54454;SDS011;40364;52.270;10.546;2022-10-20T14:05:06;6.20;;;4.05;;
54454;SDS011;40364;52.270;10.546;2022-10-20T14:07:37;7.55;;;4.25;;
54454;SDS011;40364;52.270;10.546;2022-10-20T14:10:06;8.55;;;3.72;;
54454;SDS011;40364;52.270;10.546;2022-10-20T14:12:46;5.70;;;3.85;;
54454;SDS011;40364;52.270;10.546;2022-10-20T14:15:13;7.32;;;4.20;;
54454;SDS011;40364;52.270;10.546;2022-10-20T14:17:55;4.53;;;3.60;;
54454;SDS011;40364;52.270;10.546;2022-10-20T14:20:23;6.90;;;4.07;;
54454;SDS011;40364;52.270;10.546;2022-10-20T14:22:50;10.35;;;4.47;;
54454;SDS011;40364;52.270;10.546;2022-10-20T14:25:19;7.20;;;4.20;;
54454;SDS011;40364;52.270;10.546;2022-10-20T14:27:46;6.45;;;3.85;;
54454;SDS011;40364;52.270;10.546;2022-10-20T14:30:16;5.95;;;4.10;;
54454;SDS011;40364;52.270;10.546;2022-10-20T14:32:44;10.23;;;4.63;;
54454;SDS011;40364;52.270;10.546;2022-10-20T14:35:17;6.13;;;3.75;;
54454;SDS011;40364;52.270;10.546;2022-10-20T14:37:51;5.85;;;3.85;;
54454;SDS011;40364;52.270;10.546;2022-10-20T14:40:21;6.13;;;3.55;;
54454;SDS011;40364;52.270;10.546;2022-10-20T14:42:51;6.07;;;3.90;;
54454;SDS011;40364;52.270;10.546;2022-10-20T14:45:23;6.30;;;3.50;;
54454;SDS011;40364;52.270;10.546;2022-10-20T14:47:51;8.02;;;4.15;;
54454;SDS011;40364;52.270;10.546;2022-10-20T14:50:23;7.47;;;4.20;;
54454;SDS011;40364;52.270;10.546;2022-10-20T14:52:51;13.45;;;4.40;;
54454;SDS011;40364;52.270;10.546;2022-10-20T14:55:31;8.95;;;4.07;;
54454;SDS011;40364;52.270;10.546;2022-10-20T14:58:01;5.65;;;4.10;;
54454;SDS011;40364;52.270;10.546;2022-10-20T15:00:33;9.60;;;4.35;;
54454;SDS011;40364;52.270;10.546;2022-10-20T15:03:02;7.93;;;3.88;;
54454;SDS011;40364;52.270;10.546;2022-10-20T15:05:34;8.38;;;4.38;;
54454;SDS011;40364;52.270;10.546;2022-10-20T15:08:15;4.72;;;3.55;;
54454;SDS011;40364;52.270;10.546;2022-10-20T15:10:46;11.07;;;4.32;;
54454;SDS011;40364;52.270;10.546;2022-10-20T15:13:20;4.75;;;3.35;;
54454;SDS011;40364;52.270;10.546;2022-10-20T15:18:15;5.22;;;3.45;;
54454;SDS011;40364;52.270;10.546;2022-10-20T15:20:45;5.47;;;4.18;;
54454;SDS011;40364;52.270;10.546;2022-10-20T15:23:13;5.32;;;3.30;;
54454;SDS011;40364;52.270;10.546;2022-10-20T15:25:45;5.25;;;3.50;;
54454;SDS011;40364;52.270;10.546;2022-10-20T15:28:29;6.15;;;3.40;;
54454;SDS011;40364;52.270;10.546;2022-10-20T15:30:59;6.03;;;3.38;;
54454;SDS011;40364;52.270;10.546;2022-10-20T15:33:28;16.00;;;3.63;;
54454;SDS011;40364;52.270;10.546;2022-10-20T15:35:56;5.22;;;3.40;;
54454;SDS011;40364;52.270;10.546;2022-10-20T15:38:24;7.65;;;3.30;;
54454;SDS011;40364;52.270;10.546;2022-10-20T15:40:51;5.07;;;3.70;;